createdAt,value
2023-03-21T00:04:50.967Z,100112.47
2023-03-21T00:09:57.024Z,100110.91
2023-03-21T00:15:12.940Z,100103.28
2023-03-21T00:20:17.560Z,100102.13
2023-03-21T00:25:19.162Z,100098.34
2023-03-21T00:30:21.331Z,100087.78
2023-03-21T00:35:53.618Z,100092.72
2023-03-21T00:40:49.261Z,100088.88
2023-03-21T00:45:51.576Z,100090.72
2023-03-21T00:50:55.120Z,100083.56
2023-03-21T00:55:56.739Z,100079.50
2023-03-21T01:00:58.402Z,100077.41
2023-03-21T01:06:07.554Z,100071.94
2023-03-21T01:11:12.833Z,100066.56
2023-03-21T01:16:14.525Z,100068.44
2023-03-21T01:21:16.231Z,100054.22
2023-03-21T01:26:17.952Z,100048.97
2023-03-21T01:31:20.485Z,100047.06
2023-03-21T01:36:25.568Z,100039.47
2023-03-21T01:41:43.001Z,100036.78
2023-03-21T01:47:09.301Z,100041.91
2023-03-21T01:52:29.850Z,100035.78
2023-03-21T01:58:03.917Z,100032.66
2023-03-21T02:03:16.901Z,100032.28
2023-03-21T02:08:25.869Z,100022.78
2023-03-21T02:13:36.404Z,100019.09
2023-03-21T02:19:17.641Z,100016.78
2023-03-21T02:24:59.574Z,100014.97
2023-03-21T02:30:30.581Z,100009.38
2023-03-21T02:35:56.814Z,99996.44
2023-03-21T02:41:18.363Z,99987.75
2023-03-21T02:46:42.958Z,99994.78
2023-03-21T02:51:47.750Z,99982.00
2023-03-21T02:56:51.204Z,99989.00
2023-03-21T03:01:55.308Z,99985.69
2023-03-21T03:07:03.876Z,99977.06
2023-03-21T03:12:35.558Z,99977.13
2023-03-21T03:17:42.928Z,99974.47
2023-03-21T03:23:02.188Z,99971.66
2023-03-21T03:28:06.562Z,99971.25
2023-03-21T03:33:10.560Z,99977.44
2023-03-21T03:38:14.362Z,99978.97
2023-03-21T03:43:24.467Z,99971.47
2023-03-21T03:48:35.329Z,99966.34
2023-03-21T03:53:46.365Z,99967.84
2023-03-21T03:58:49.064Z,99964.13
2023-03-21T04:03:56.434Z,99957.91
2023-03-21T04:09:13.601Z,99966.97
2023-03-21T04:14:20.844Z,99963.84
2023-03-21T04:19:22.822Z,99960.66
2023-03-21T04:24:24.445Z,99958.41
2023-03-21T04:29:29.932Z,99961.44
2023-03-21T04:34:31.590Z,99959.13
2023-03-21T04:39:33.203Z,99958.69
2023-03-21T04:44:34.890Z,99960.91
2023-03-21T04:49:36.678Z,99953.44
2023-03-21T04:54:38.281Z,99946.53
2023-03-21T04:59:40.379Z,99947.25
2023-03-21T05:04:42.226Z,99946.72
2023-03-21T05:09:43.852Z,99945.88
2023-03-21T05:14:45.609Z,99949.25
2023-03-21T05:19:47.322Z,99941.97
2023-03-21T05:24:50.421Z,99932.25
2023-03-21T05:29:52.058Z,99930.91
2023-03-21T05:34:53.737Z,99935.66
2023-03-21T05:39:55.380Z,99939.56
2023-03-21T05:44:57.000Z,99940.69
2023-03-21T05:49:58.651Z,99946.19
2023-03-21T05:55:00.246Z,99946.28
2023-03-21T06:00:02.178Z,99949.47
2023-03-21T06:05:04.105Z,99951.94
2023-03-21T06:10:06.605Z,99947.81
2023-03-21T06:15:09.087Z,99952.16
2023-03-21T06:20:11.600Z,99947.41
2023-03-21T06:25:13.646Z,99948.50
2023-03-21T06:30:16.178Z,99953.25
2023-03-21T06:35:18.086Z,99959.78
2023-03-21T06:40:20.368Z,99968.72
2023-03-21T06:45:22.188Z,99961.16
2023-03-21T06:50:23.875Z,99961.28
2023-03-21T06:55:27.135Z,99965.41
2023-03-21T07:00:29.539Z,99958.38
2023-03-21T07:05:31.602Z,99948.03
2023-03-21T07:10:33.232Z,99949.38
2023-03-21T07:15:38.306Z,99951.25
2023-03-21T07:20:40.590Z,99961.09
2023-03-21T07:25:42.551Z,99954.00
2023-03-21T07:30:45.119Z,99955.13
2023-03-21T07:35:46.835Z,99954.53
2023-03-21T07:40:49.514Z,99961.16
2023-03-21T07:45:51.157Z,99948.34
2023-03-21T07:50:52.965Z,99956.44
2023-03-21T07:55:58.353Z,99965.00
2023-03-21T08:01:00.617Z,99963.53
2023-03-21T08:06:02.481Z,99969.53
2023-03-21T08:11:05.494Z,99974.56
2023-03-21T08:16:08.854Z,99973.78
2023-03-21T08:21:21.476Z,99966.88
2023-03-21T08:26:26.604Z,99960.09
2023-03-21T08:31:28.522Z,99954.63
2023-03-21T08:36:31.608Z,99956.84
2023-03-21T08:41:34.799Z,99966.59
2023-03-21T08:46:37.415Z,99968.06
2023-03-21T08:51:39.053Z,99963.84
2023-03-21T08:56:40.777Z,99965.34
2023-03-21T09:01:42.481Z,99965.75
2023-03-21T09:06:45.689Z,99953.50
2023-03-21T09:11:52.463Z,99960.75
2023-03-21T09:16:54.264Z,99964.38
2023-03-21T09:21:55.974Z,99964.41
2023-03-21T09:26:58.065Z,99974.78
2023-03-21T09:32:00.256Z,99976.53
2023-03-21T09:37:02.332Z,99976.22
2023-03-21T09:42:44.978Z,99975.59
2023-03-21T09:47:57.137Z,99977.19
2023-03-21T09:53:05.896Z,99973.31
2023-03-21T09:58:31.114Z,99973.72
2023-03-21T10:03:36.984Z,99969.22
2023-03-21T10:08:45.605Z,99976.75
2023-03-21T10:14:00.185Z,99969.25
2023-03-21T10:19:10.408Z,99972.41
2023-03-21T10:24:22.477Z,99970.44
2023-03-21T10:29:29.168Z,99973.22
2023-03-21T10:34:42.313Z,99968.22
2023-03-21T10:39:47.560Z,99978.41
2023-03-21T10:44:51.775Z,99979.31
2023-03-21T10:50:07.436Z,99971.63
2023-03-21T10:55:26.010Z,99980.78
2023-03-21T11:00:34.086Z,99963.06
2023-03-21T11:05:39.470Z,99961.69
2023-03-21T11:10:59.115Z,99969.41
2023-03-21T11:16:18.662Z,99958.50
2023-03-21T11:21:22.231Z,99950.91
2023-03-21T11:26:32.387Z,99947.72
2023-03-21T11:31:41.568Z,99948.88
2023-03-21T11:36:43.244Z,99945.31
2023-03-21T11:41:51.246Z,99941.94
2023-03-21T11:46:54.331Z,99937.63
2023-03-21T11:51:58.748Z,99924.63
2023-03-21T11:57:12.003Z,99925.38
2023-03-21T12:02:35.094Z,99907.22
2023-03-21T12:08:01.596Z,99895.56
2023-03-21T12:13:18.640Z,99892.09
2023-03-21T12:18:29.307Z,99885.94
2023-03-21T12:23:30.988Z,99880.78
2023-03-21T12:28:38.255Z,99865.16
2023-03-21T12:34:04.529Z,99867.03
2023-03-21T12:39:33.261Z,99861.78
2023-03-21T12:44:42.032Z,99850.75
2023-03-21T12:49:56.365Z,99843.75
2023-03-21T12:55:07.750Z,99842.00
2023-03-21T13:00:18.630Z,99838.97
2023-03-21T13:05:29.121Z,99830.88
2023-03-21T13:10:32.278Z,99824.31
2023-03-21T13:15:48.950Z,99807.91
2023-03-21T13:20:55.488Z,99820.09
2023-03-21T13:25:58.122Z,99807.72
2023-03-21T13:31:25.805Z,99795.16
2023-03-21T13:36:32.215Z,99788.84
2023-03-21T13:41:39.578Z,99779.31
2023-03-21T13:46:54.673Z,99762.63
2023-03-21T13:51:58.860Z,99790.47
2023-03-21T13:57:05.369Z,99795.13
2023-03-21T14:02:30.354Z,99789.69
2023-03-21T14:07:41.168Z,99783.81
2023-03-21T14:12:44.477Z,99774.16
2023-03-21T14:17:56.669Z,99762.44
2023-03-21T14:22:59.250Z,99751.91
2023-03-21T14:28:04.752Z,99754.81
2023-03-21T14:33:40.215Z,99746.53
2023-03-21T14:38:42.021Z,99752.63
2023-03-21T14:43:43.875Z,99745.16
2023-03-21T14:48:45.934Z,99750.88
2023-03-21T14:53:47.717Z,99742.59
2023-03-21T14:58:51.071Z,99743.44
2023-03-21T15:03:52.948Z,99736.00
2023-03-21T15:09:01.197Z,99739.03
2023-03-21T15:14:13.206Z,99728.84
2023-03-21T15:19:18.013Z,99716.16
2023-03-21T15:24:27.441Z,99692.28
2023-03-21T15:29:29.620Z,99696.59
2023-03-21T15:34:31.748Z,99690.94
2023-03-21T15:39:36.095Z,99686.31
2023-03-21T15:44:37.719Z,99682.31
2023-03-21T15:49:41.794Z,99685.66
2023-03-21T15:54:50.986Z,99685.69
2023-03-21T15:59:59.533Z,99678.31
2023-03-21T16:05:20.194Z,99683.47
2023-03-21T16:10:29.792Z,99675.28
2023-03-21T16:15:32.665Z,99670.75
2023-03-21T16:20:37.982Z,99659.50
2023-03-21T16:25:40.658Z,99648.59
2023-03-21T16:30:42.276Z,99644.63
2023-03-21T16:35:43.982Z,99634.69
2023-03-21T16:40:45.616Z,99636.25
2023-03-21T16:45:47.239Z,99635.50
2023-03-21T16:50:48.978Z,99642.53
2023-03-21T16:55:53.384Z,99638.31
2023-03-21T17:00:56.462Z,99637.19
2023-03-21T17:05:58.160Z,99652.97
2023-03-21T17:10:59.984Z,99655.84
2023-03-21T17:16:01.813Z,99659.28
2023-03-21T17:21:09.125Z,99665.50
2023-03-21T17:26:14.241Z,99654.19
2023-03-21T17:31:18.928Z,99654.38
2023-03-21T17:36:35.710Z,99661.78
2023-03-21T17:41:37.391Z,99659.13
2023-03-21T17:46:39.441Z,99666.31
2023-03-21T17:51:41.650Z,99667.06
2023-03-21T17:56:43.368Z,99664.25
2023-03-21T18:01:45.148Z,99675.50
2023-03-21T18:06:47.147Z,99676.47
2023-03-21T18:11:49.057Z,99677.13
2023-03-21T18:16:52.652Z,99685.59
2023-03-21T18:21:54.290Z,99696.53
2023-03-21T18:26:56.040Z,99696.03
2023-03-21T18:32:07.031Z,99697.38
2023-03-21T18:37:11.969Z,99705.19
2023-03-21T18:42:19.111Z,99705.81
2023-03-21T18:47:22.546Z,99705.28
2023-03-21T18:52:26.454Z,99712.63
2023-03-21T18:57:36.545Z,99709.19
2023-03-21T19:02:48.496Z,99709.56
2023-03-21T19:07:52.563Z,99700.41
2023-03-21T19:12:54.941Z,99710.03
2023-03-21T19:18:33.078Z,99712.63
2023-03-21T19:23:21.059Z,99699.19
2023-03-21T19:28:22.925Z,99702.66
2023-03-21T19:33:25.278Z,99710.44
2023-03-21T19:38:27.610Z,99702.91
2023-03-21T19:43:33.174Z,99704.34
2023-03-21T19:48:38.430Z,99711.06
2023-03-21T19:53:40.554Z,99711.97
2023-03-21T19:58:42.622Z,99716.19
2023-03-21T20:03:44.683Z,99696.34
2023-03-21T20:14:08.141Z,99696.72
2023-03-21T20:19:12.672Z,99691.31
2023-03-21T20:24:16.409Z,99682.19
2023-03-21T20:34:40.345Z,99673.03
2023-03-21T20:39:42.553Z,99675.94
2023-03-21T20:45:00.960Z,99684.56
2023-03-21T20:50:03.202Z,99677.09
2023-03-21T20:55:08.877Z,99684.91
2023-03-21T21:00:17.010Z,99688.59
2023-03-21T21:05:30.092Z,99682.97
2023-03-21T21:10:35.500Z,99676.16
2023-03-21T21:15:39.555Z,99677.63
2023-03-21T21:20:41.734Z,99676.72
2023-03-21T21:25:43.436Z,99672.19
2023-03-21T21:30:45.249Z,99670.28
2023-03-21T21:35:48.637Z,99661.47
2023-03-21T21:40:52.356Z,99647.34
2023-03-21T21:45:54.735Z,99660.13
2023-03-21T21:50:56.428Z,99659.78
2023-03-21T21:55:58.086Z,99652.50
2023-03-21T22:01:01.659Z,99650.47
2023-03-21T22:06:04.696Z,99644.84
2023-03-21T22:11:06.712Z,99642.38
2023-03-21T22:16:08.602Z,99644.22
2023-03-21T22:21:10.425Z,99644.31
2023-03-21T22:26:12.171Z,99658.63
2023-03-21T22:31:16.157Z,99653.84
2023-03-21T22:36:17.854Z,99645.56
2023-03-21T22:41:19.466Z,99656.78
2023-03-21T22:46:21.214Z,99660.56
2023-03-21T22:51:22.927Z,99664.47
2023-03-21T22:56:24.610Z,99660.06
2023-03-21T23:01:26.282Z,99663.00
2023-03-21T23:06:27.940Z,99659.69
2023-03-21T23:11:29.612Z,99651.28
2023-03-21T23:16:31.914Z,99654.09
2023-03-21T23:21:35.187Z,99648.31
2023-03-21T23:26:37.003Z,99649.22
2023-03-21T23:31:38.705Z,99641.72
2023-03-21T23:36:40.829Z,99642.50
2023-03-21T23:41:45.175Z,99636.03
2023-03-21T23:46:46.830Z,99631.59
2023-03-21T23:51:48.495Z,99628.38
2023-03-21T23:56:50.360Z,99628.94
